Time;durP1;ratioP1;P1;durP2;ratioP2;P2;SDS_P1;SDS_P2;PMS_P1;PMS_P2;Temp;Humidity;BMP_temperature;BMP_pressure;BME280_temperature;BME280_humidity;BME280_pressure;Samples;Min_cycle;Max_cycle;Signal;HPM_P1;HPM_P2
2022/10/03 00:01:14;;;;;;;2.75;2.55;;;;;;;8.00;100.00;98151.06;1685490;84;21569;-71
2022/10/03 00:03:46;;;;;;;2.65;2.33;;;;;;;8.01;100.00;98122.42;1683379;84;21146;-72
2022/10/03 00:06:17;;;;;;;2.60;2.40;;;;;;;8.02;100.00;98155.59;1678194;84;21064;-75
2022/10/03 00:09:05;;;;;;;2.30;2.10;;;;;;;8.02;100.00;98120.78;1675809;84;21028;-72
2022/10/03 00:12:02;;;;;;;2.30;2.15;;;;;;;8.04;100.00;98111.96;1622040;86;21100;-74
2022/10/03 00:14:37;;;;;;;2.10;1.95;;;;;;;8.07;100.00;98132.82;1665968;86;21075;-74
2022/10/03 00:17:30;;;;;;;3.65;2.55;;;;;;;8.11;100.00;98120.48;1661932;84;21585;-70
2022/10/03 00:20:04;;;;;;;;;;;;;;;8.11;100.00;98124.51;1668867;85;21083;-72
2022/10/03 00:22:55;;;;;;;2.90;2.50;;;;;;;8.11;100.00;98117.02;1664704;85;21847;-70
2022/10/03 00:25:30;;;;;;;3.45;2.85;;;;;;;8.12;100.00;98115.41;1637194;87;21097;-70
2022/10/03 00:28:17;;;;;;;6.97;2.77;;;;;;;8.13;100.00;98113.53;1654303;85;21039;-70
2022/10/03 00:30:53;;;;;;;3.33;3.05;;;;;;;8.15;100.00;98110.06;1645496;85;21081;-70
2022/10/03 00:33:33;;;;;;;4.62;3.17;;;;;;;8.16;100.00;98100.93;1658809;85;20960;-70
2022/10/03 00:36:23;;;;;;;3.40;2.92;;;;;;;8.17;100.00;98119.95;1647732;85;21123;-71
2022/10/03 00:39:07;;;;;;;2.87;2.65;;;;;;;8.15;100.00;98106.82;1627795;85;21674;-73
2022/10/03 00:42:12;;;;;;;3.98;3.02;;;;;;;8.13;100.00;98104.16;1632236;85;21047;-71
2022/10/03 00:44:51;;;;;;;3.30;3.10;;;;;;;8.13;100.00;98094.80;1628430;87;21580;-79
2022/10/03 00:48:05;;;;;;;3.55;3.10;;;;;;;8.14;100.00;98104.44;1619058;87;21720;-72
2022/10/03 00:50:53;;;;;;;3.15;2.95;;;;;;;8.13;100.00;98082.74;1631428;87;21120;-73
2022/10/03 00:53:46;;;;;;;3.50;3.17;;;;;;;8.14;100.00;98092.39;1649271;85;21086;-69
2022/10/03 00:56:50;;;;;;;4.00;3.70;;;;;;;8.15;100.00;98097.45;1638326;87;21078;-72
2022/10/03 00:59:57;;;;;;;3.52;3.22;;;;;;;8.14;100.00;98099.88;1662991;85;21362;-73
2022/10/03 01:03:00;;;;;;;3.83;3.22;;;;;;;8.16;100.00;98084.33;1649170;85;21066;-73
2022/10/03 01:06:06;;;;;;;3.65;3.25;;;;;;;8.18;100.00;98091.56;1650397;85;21082;-72
2022/10/03 01:08:58;;;;;;;3.40;3.00;;;;;;;8.20;100.00;98090.73;1672085;85;21579;-73
2022/10/03 01:11:49;;;;;;;5.37;3.62;;;;;;;8.23;100.00;98102.80;1668011;85;21038;-73
2022/10/03 01:14:53;;;;;;;3.92;2.98;;;;;;;8.23;100.00;98094.77;1661095;85;21322;-73
2022/10/03 01:17:48;;;;;;;3.60;3.30;;;;;;;8.23;100.00;98091.55;1660913;85;21040;-73
2022/10/03 01:20:29;;;;;;;5.22;3.52;;;;;;;8.25;100.00;98089.91;1684943;84;21123;-72
2022/10/03 01:23:23;;;;;;;4.15;3.62;;;;;;;8.25;100.00;98081.34;1661233;84;21154;-74
2022/10/03 01:25:55;;;;;;;4.28;3.98;;;;;;;8.25;100.00;98087.23;1690490;84;20972;-73
2022/10/03 01:32:17;;;;;;;3.00;2.62;;;;;;;8.24;100.00;98092.36;1640080;86;21008;-74
2022/10/03 01:35:14;;;;;;;4.20;3.47;;;;;;;8.25;100.00;98088.58;1650218;86;21059;-73
2022/10/03 01:38:23;;;;;;;2.87;2.65;;;;;;;8.27;100.00;98083.77;1650284;86;21056;-72
2022/10/03 01:41:01;;;;;;;3.00;2.70;;;;;;;8.27;100.00;98104.66;1632794;86;21073;-73
2022/10/03 01:43:53;;;;;;;3.40;3.10;;;;;;;8.27;100.00;98077.06;1636207;87;21884;-72
2022/10/03 01:46:38;;;;;;;3.58;2.83;;;;;;;8.28;100.00;98074.66;1610476;89;21041;-73
2022/10/03 01:49:33;;;;;;;3.42;3.17;;;;;;;8.29;100.00;98091.83;1653006;86;21032;-73
2022/10/03 01:52:27;;;;;;;3.65;2.72;;;;;;;8.31;100.00;98082.97;1615003;88;21055;-73
2022/10/03 01:55:31;;;;;;;3.10;2.90;;;;;;;8.34;100.00;98079.49;1607300;88;21416;-72
2022/10/03 01:58:03;;;;;;;5.65;2.95;;;;;;;8.33;100.00;98080.56;1644647;86;21519;-73
2022/10/03 02:00:35;;;;;;;4.17;2.80;;;;;;;8.28;100.00;98076.00;1620546;86;21131;-73
2022/10/03 02:03:22;;;;;;;4.05;2.22;;;;;;;8.27;100.00;98081.08;1609473;86;21059;-73
2022/10/03 02:06:35;;;;;;;2.92;2.72;;;;;;;8.26;100.00;98083.49;1654429;85;21532;-74
2022/10/03 02:09:17;;;;;;;4.28;3.02;;;;;;;8.25;100.00;98079.20;1661960;85;21580;-74
2022/10/03 02:11:55;;;;;;;3.12;2.80;;;;;;;8.27;100.00;98075.73;1638139;85;21342;-73
2022/10/03 02:15:02;;;;;;;2.52;2.33;;;;;;;8.30;100.00;98098.77;1636184;86;21060;-73
2022/10/03 02:17:57;;;;;;;3.47;3.20;;;;;;;8.31;100.00;98088.86;1598733;86;21024;-73
2022/10/03 02:20:53;;;;;;;3.10;2.90;;;;;;;8.35;100.00;98086.42;1660882;85;21016;-71
2022/10/03 02:23:31;;;;;;;3.40;3.10;;;;;;;8.35;100.00;98088.57;1664988;84;21095;-72
2022/10/03 02:26:24;;;;;;;2.45;2.25;;;;;;;8.34;100.00;98072.27;1677509;84;21552;-72
2022/10/03 02:29:31;;;;;;;3.15;2.95;;;;;;;8.32;100.00;98077.08;1683461;84;21054;-71
2022/10/03 02:32:05;;;;;;;2.92;2.72;;;;;;;8.30;100.00;98077.34;1601906;86;21516;-71
2022/10/03 02:35:13;;;;;;;3.70;3.25;;;;;;;8.33;100.00;98100.65;1668433;86;21514;-71
2022/10/03 02:38:00;;;;;;;4.45;2.62;;;;;;;8.33;100.00;98080.56;1626097;86;21059;-71
2022/10/03 02:40:58;;;;;;;3.05;2.72;;;;;;;8.37;100.00;98106.52;1695150;84;21297;-72
2022/10/03 02:44:07;;;;;;;3.17;2.87;;;;;;;8.38;100.00;98089.91;1689470;84;21670;-73
2022/10/03 02:47:16;;;;;;;3.17;2.90;;;;;;;8.37;100.00;98089.11;1667688;84;21083;-73
2022/10/03 02:50:18;;;;;;;2.90;2.65;;;;;;;8.36;100.00;98087.50;1695079;84;21075;-73
2022/10/03 02:53:33;;;;;;;2.77;2.58;;;;;;;8.36;100.00;98081.34;1670605;84;21571;-72
2022/10/03 02:56:24;;;;;;;2.70;2.50;;;;;;;8.37;100.00;98076.25;1664244;85;21150;-72
2022/10/03 02:59:29;;;;;;;2.90;2.70;;;;;;;8.37;100.00;98099.83;1637484;87;21068;-72
2022/10/03 03:02:13;;;;;;;2.83;2.62;;;;;;;8.37;100.00;98076.25;1667451;84;21008;-72
2022/10/03 03:05:00;;;;;;;3.25;3.05;;;;;;;8.37;100.00;98079.73;1687372;84;21012;-72
2022/10/03 03:07:58;;;;;;;3.00;2.80;;;;;;;8.38;100.00;98073.84;1639969;86;21107;-72
2022/10/03 03:11:07;;;;;;;2.87;2.67;;;;;;;8.41;100.00;98070.06;1689821;84;21040;-73
2022/10/03 03:13:46;;;;;;;3.12;2.85;;;;;;;8.42;100.00;98074.89;1667426;86;20968;-71
2022/10/03 03:16:40;;;;;;;3.55;2.92;;;;;;;8.40;100.00;98081.05;1677296;84;21051;-72
2022/10/03 03:19:30;;;;;;;2.85;2.62;;;;;;;8.39;100.00;98068.76;1691312;84;21056;-71
2022/10/03 03:22:40;;;;;;;2.70;2.50;;;;;;;8.37;100.00;98074.38;1650550;85;21112;-72
2022/10/03 03:25:40;;;;;;;3.20;2.98;;;;;;;8.35;100.00;98068.48;1659719;86;21066;-72
2022/10/03 03:28:36;;;;;;;7.75;2.95;;;;;;;8.37;100.00;98078.40;1636346;87;21679;-71
2022/10/03 03:31:10;;;;;;;3.60;2.60;;;;;;;8.36;100.00;98120.18;1617740;86;21050;-72
2022/10/03 03:33:55;;;;;;;2.67;2.47;;;;;;;8.35;100.00;98081.88;1641474;86;21047;-72
2022/10/03 03:36:51;;;;;;;2.42;2.22;;;;;;;8.37;100.00;98090.45;1662038;85;21056;-72
2022/10/03 03:39:53;;;;;;;2.77;2.37;;;;;;;8.38;100.00;98076.52;1663869;85;21305;-71
2022/10/03 03:42:54;;;;;;;2.50;2.30;;;;;;;8.37;100.00;98065.00;1636732;85;21061;-72
2022/10/03 03:45:39;;;;;;;2.77;2.58;;;;;;;8.38;100.00;98063.94;1637135;87;21600;-71
2022/10/03 03:48:37;;;;;;;4.28;3.50;;;;;;;8.42;100.00;98052.92;1663893;86;21123;-71
2022/10/03 03:51:26;;;;;;;2.70;2.50;;;;;;;8.42;100.00;98076.23;1652949;86;21136;-71
2022/10/03 03:54:04;;;;;;;2.62;2.42;;;;;;;8.38;100.00;98066.61;1635526;87;21522;-70
2022/10/03 03:56:52;;;;;;;2.77;2.58;;;;;;;8.35;100.00;98063.66;1635241;87;21081;-70
2022/10/03 03:59:43;;;;;;;2.45;2.15;;;;;;;8.34;100.00;98078.95;1635318;87;21064;-70
2022/10/03 04:02:34;;;;;;;2.65;2.45;;;;;;;8.35;100.00;98070.36;1646548;86;21019;-71
2022/10/03 04:05:17;;;;;;;2.42;2.22;;;;;;;8.36;100.00;98061.25;1636999;87;21591;-71
2022/10/03 04:08:10;;;;;;;2.80;2.60;;;;;;;8.38;100.00;98071.16;1662570;86;21167;-71
2022/10/03 04:11:00;;;;;;;3.70;2.62;;;;;;;8.39;100.00;98092.86;1657604;85;21087;-70
2022/10/03 04:13:41;;;;;;;3.37;3.00;;;;;;;8.39;100.00;98066.08;1610603;87;21112;-71
2022/10/03 04:19:23;;;;;;;3.27;3.08;;;;;;;8.38;100.00;98067.95;1600215;87;21086;-71
2022/10/03 04:22:12;;;;;;;3.62;2.90;;;;;;;8.39;100.00;98076.26;1630556;86;21258;-72
2022/10/03 04:25:19;;;;;;;3.25;3.05;;;;;;;8.38;100.00;98063.13;1667593;84;21127;-70
2022/10/03 04:28:00;;;;;;;4.25;3.90;;;;;;;8.38;100.00;98067.15;1666946;86;21047;-71
2022/10/03 04:30:47;;;;;;;3.90;3.55;;;;;;;8.40;100.00;98085.06;1668323;84;21584;-69
2022/10/03 04:33:51;;;;;;;5.53;4.00;;;;;;;8.40;100.00;98082.39;1666679;86;21142;-72
2022/10/03 04:36:32;;;;;;;4.17;3.12;;;;;;;8.39;100.00;98082.95;1667984;85;21121;-72
2022/10/03 04:39:29;;;;;;;4.10;3.77;;;;;;;8.40;100.00;98070.33;1666673;86;21075;-72
2022/10/03 04:42:09;;;;;;;3.60;3.33;;;;;;;8.40;100.00;98071.14;1637894;86;21075;-73
2022/10/03 04:44:55;;;;;;;3.95;3.55;;;;;;;8.40;100.00;98071.67;1637772;86;21047;-71
2022/10/03 04:47:29;;;;;;;8.93;4.45;;;;;;;8.40;100.00;98071.67;1667791;86;21074;-72
2022/10/03 04:50:14;;;;;;;4.10;3.70;;;;;;;8.43;100.00;98072.48;1668097;86;21143;-71
2022/10/03 04:53:07;;;;;;;4.30;3.80;;;;;;;8.43;100.00;98073.82;1667052;84;20980;-73
2022/10/03 04:55:48;;;;;;;3.70;3.40;;;;;;;8.43;100.00;98068.47;1666838;86;21087;-71
2022/10/03 04:58:39;;;;;;;5.00;3.90;;;;;;;8.42;100.00;98078.91;1668293;86;21582;-72
2022/10/03 05:01:26;;;;;;;4.00;3.35;;;;;;;8.43;100.00;98081.86;1667959;84;21107;-71
2022/10/03 05:04:01;;;;;;;3.22;3.02;;;;;;;8.43;100.00;98081.86;1687475;84;21054;-72
2022/10/03 05:06:49;;;;;;;3.77;3.47;;;;;;;8.45;100.00;98078.34;1667226;84;21042;-73
2022/10/03 05:09:31;;;;;;;3.30;3.00;;;;;;;8.46;100.00;98074.06;1668416;86;21609;-73
2022/10/03 05:12:44;;;;;;;3.30;3.10;;;;;;;8.48;100.00;98073.27;1637110;86;21056;-72
2022/10/03 05:15:36;;;;;;;3.58;3.27;;;;;;;8.50;100.00;98071.63;1636550;87;21100;-73
2022/10/03 05:18:34;;;;;;;3.90;3.50;;;;;;;8.49;100.00;98081.55;1649437;86;21156;-72
2022/10/03 05:21:14;;;;;;;4.60;3.30;;;;;;;8.49;100.00;98076.75;1657345;86;21576;-73
2022/10/03 05:23:53;;;;;;;4.00;3.65;;;;;;;8.46;100.00;98087.46;1640064;86;21123;-72
2022/10/03 05:26:49;;;;;;;3.75;3.40;;;;;;;8.44;100.00;98082.90;1678019;84;21032;-75
2022/10/03 05:29:39;;;;;;;2.80;2.60;;;;;;;8.45;100.00;98099.24;1698651;84;20952;-72
2022/10/03 05:32:28;;;;;;;2.90;2.70;;;;;;;8.48;100.00;98087.20;1678350;84;21155;-72
2022/10/03 05:35:19;;;;;;;6.80;2.58;;;;;;;8.52;100.00;98094.41;1669645;86;20960;-72
2022/10/03 05:38:14;;;;;;;3.80;3.50;;;;;;;8.54;100.00;98090.89;1666932;86;21016;-72
2022/10/03 05:40:50;;;;;;;3.42;3.12;;;;;;;8.55;100.00;98088.48;1670400;84;21069;-71
2022/10/03 05:43:37;;;;;;;3.98;3.65;;;;;;;8.54;100.00;98090.89;1694712;84;20997;-72
2022/10/03 05:46:13;;;;;;;3.12;2.77;;;;;;;8.52;100.00;98086.37;1667808;84;21167;-74
2022/10/03 05:48:51;;;;;;;7.05;3.17;;;;;;;8.52;100.00;98085.56;1668786;86;21563;-72
2022/10/03 05:51:52;;;;;;;2.75;2.55;;;;;;;8.51;100.00;98105.39;1668794;84;21095;-70
2022/10/03 05:54:49;;;;;;;3.90;2.47;;;;;;;8.50;100.00;98085.83;1667441;86;21567;-71
2022/10/03 05:57:37;;;;;;;4.00;2.42;;;;;;;8.51;100.00;98088.78;1658107;84;21508;-72
2022/10/03 06:00:31;;;;;;;2.60;2.40;;;;;;;8.54;100.00;98094.11;1640683;84;21236;-73
2022/10/03 06:03:50;;;;;;;2.95;2.75;;;;;;;8.59;100.00;98091.41;1667122;86;21098;-71
2022/10/03 06:06:54;;;;;;;3.20;2.60;;;;;;;8.62;100.00;98097.04;1634410;86;21002;-72
2022/10/03 06:10:01;;;;;;;2.58;2.35;;;;;;;8.61;100.00;98090.06;1652587;86;21104;-71
2022/10/03 06:12:53;;;;;;;2.08;1.98;;;;;;;8.60;100.00;98110.43;1664291;84;21063;-72
2022/10/03 06:15:53;;;;;;;2.60;2.40;;;;;;;8.55;100.00;98109.92;1666932;86;21160;-72
2022/10/03 06:18:56;;;;;;;2.55;2.33;;;;;;;8.54;100.00;98102.95;1665804;86;21007;-75
2022/10/03 06:21:51;;;;;;;3.95;2.33;;;;;;;8.52;100.00;98123.88;1666693;84;21525;-74
2022/10/03 06:25:09;;;;;;;3.05;2.80;;;;;;;8.53;100.00;98111.28;1657370;86;21592;-75
2022/10/03 06:27:56;;;;;;;2.37;2.20;;;;;;;8.55;100.00;98115.81;1666708;86;21154;-75
2022/10/03 06:30:48;;;;;;;2.40;2.20;;;;;;;8.55;100.00;98134.03;1671964;84;21069;-74
2022/10/03 06:33:38;;;;;;;2.25;1.77;;;;;;;8.56;100.00;98123.59;1666668;86;21115;-76
2022/10/03 06:36:28;;;;;;;3.22;2.98;;;;;;;8.58;100.00;98121.98;1667020;86;21062;-73
2022/10/03 06:39:39;;;;;;;2.58;2.37;;;;;;;8.60;100.00;98117.94;1666894;84;21082;-75
2022/10/03 06:42:30;;;;;;;2.02;1.92;;;;;;;8.62;100.00;98125.17;1641256;87;21090;-74
2022/10/03 06:45:18;;;;;;;2.60;2.40;;;;;;;8.60;100.00;98123.30;1640675;87;21346;-74
2022/10/03 06:47:50;;;;;;;2.80;2.27;;;;;;;8.59;100.00;98133.74;1625221;86;21655;-75
2022/10/03 06:50:46;;;;;;;2.00;1.90;;;;;;;8.56;100.00;98142.34;1667197;84;20987;-74
2022/10/03 06:53:44;;;;;;;1.90;1.80;;;;;;;8.57;100.00;98134.57;1617143;84;21474;-75
2022/10/03 06:56:30;;;;;;;1.77;1.67;;;;;;;8.59;100.00;98142.31;1674626;84;21109;-77
2022/10/03 06:59:16;;;;;;;2.00;1.90;;;;;;;8.59;100.00;98130.26;1667092;84;21234;-74
2022/10/03 07:02:06;;;;;;;1.72;1.62;;;;;;;8.59;100.00;98139.09;1669290;84;21547;-75
2022/10/03 07:05:35;;;;;;;2.15;2.02;;;;;;;8.63;100.00;98144.73;1668374;85;21039;-77
2022/10/03 07:08:42;;;;;;;2.17;2.08;;;;;;;8.67;100.00;98146.59;1666247;84;21148;-75
2022/10/03 07:11:30;;;;;;;3.08;1.75;;;;;;;8.71;100.00;98185.70;1584039;86;21114;-75
2022/10/03 07:14:25;;;;;;;3.27;1.85;;;;;;;8.71;100.00;98153.53;1625563;87;21303;-74
2022/10/03 07:17:21;;;;;;;2.98;1.50;;;;;;;8.73;100.00;98154.04;1637696;87;20988;-72
2022/10/03 07:20:02;;;;;;;3.20;2.65;;;;;;;8.73;100.00;98163.42;1639870;86;21047;-75
2022/10/03 07:23:05;;;;;;;1.40;1.32;;;;;;;8.73;100.00;98149.48;1668256;84;21027;-73
2022/10/03 07:25:49;;;;;;;1.77;1.50;;;;;;;8.74;100.00;98153.78;1670258;86;21007;-73
2022/10/03 07:28:33;;;;;;;1.60;1.40;;;;;;;8.78;100.00;98154.02;1607060;86;21308;-73
2022/10/03 07:31:24;;;;;;;1.55;1.45;;;;;;;8.79;100.00;98166.35;1668129;85;21035;-73
2022/10/03 07:34:25;;;;;;;1.80;1.52;;;;;;;8.83;100.00;98150.51;1668197;85;21028;-74
2022/10/03 07:40:19;;;;;;;2.25;1.40;;;;;;;8.90;100.00;98149.15;1648684;84;21063;-74
2022/10/03 07:43:30;;;;;;;1.47;1.37;;;;;;;8.92;100.00;98151.56;1694930;84;21140;-73
2022/10/03 07:46:45;;;;;;;2.65;1.30;;;;;;;8.93;100.00;98139.73;1668296;86;21063;-69
2022/10/03 07:49:43;;;;;;;1.22;1.12;;;;;;;8.98;100.00;98149.09;1667279;84;21067;-73
2022/10/03 07:52:42;;;;;;;1.82;1.72;;;;;;;9.01;100.00;98142.66;1667206;86;21595;-72
2022/10/03 07:55:32;;;;;;;1.95;1.65;;;;;;;9.06;100.00;98147.19;1649792;86;20998;-72
2022/10/03 07:58:08;;;;;;;1.57;1.42;;;;;;;9.09;100.00;98142.06;1638538;86;21066;-73
2022/10/03 08:01:13;;;;;;;1.90;1.80;;;;;;;9.14;100.00;98142.57;1652014;86;21141;-71
2022/10/03 08:04:21;;;;;;;2.65;1.32;;;;;;;9.14;100.00;98129.97;1680020;84;21138;-70
2022/10/03 08:07:25;;;;;;;2.33;1.60;;;;;;;9.18;100.00;98128.86;1662760;86;21544;-73
2022/10/03 08:10:08;;;;;;;;;;;;;;;9.22;100.00;98129.90;1669046;84;21095;-73
2022/10/03 08:12:54;;;;;;;1.60;1.50;;;;;;;9.31;100.00;98128.22;1673564;84;21111;-74
2022/10/03 08:16:04;;;;;;;4.53;1.85;;;;;;;9.39;100.00;98128.19;1696316;84;21030;-71
2022/10/03 08:19:11;;;;;;;6.67;2.90;;;;;;;9.47;100.00;98127.03;1646980;85;21035;-72
2022/10/03 08:22:10;;;;;;;4.95;2.67;;;;;;;9.60;100.00;98123.70;1662082;85;21075;-75
2022/10/03 08:25:29;;;;;;;2.92;2.70;;;;;;;9.70;100.00;98127.38;1656292;86;21074;-76
2022/10/03 08:28:33;;;;;;;3.47;2.72;;;;;;;9.76;100.00;98120.34;1635305;87;21155;-72
2022/10/03 08:31:26;;;;;;;3.58;3.27;;;;;;;9.82;100.00;98121.10;1651470;86;21630;-72
2022/10/03 08:34:27;;;;;;;8.88;3.65;;;;;;;9.87;100.00;98123.20;1661596;85;21017;-70
2022/10/03 08:37:42;;;;;;;3.70;3.25;;;;;;;9.94;100.00;98129.56;1662087;84;21104;-71
2022/10/03 08:41:03;;;;;;;6.65;2.92;;;;;;;10.01;100.00;98129.50;1667751;84;21568;-71
2022/10/03 08:44:01;;;;;;;5.55;3.27;;;;;;;10.08;100.00;98121.09;1626751;87;21103;-73
2022/10/03 08:47:24;;;;;;;9.05;3.85;;;;;;;10.21;100.00;98127.72;1636048;86;21695;-73
2022/10/03 08:50:31;;;;;;;4.90;3.33;;;;;;;10.31;100.00;98132.41;1616283;86;21063;-73
2022/10/03 08:53:20;;;;;;;6.45;3.58;;;;;;;10.38;100.00;98131.54;1635597;87;21120;-75
2022/10/03 08:55:58;;;;;;;6.20;3.90;;;;;;;10.47;100.00;98136.54;1646159;86;21517;-72
2022/10/03 08:59:14;;;;;;;4.22;3.27;;;;;;;10.55;100.00;98136.44;1626940;87;21944;-71
2022/10/03 09:02:10;;;;;;;4.97;3.40;;;;;;;10.62;100.00;98130.72;1520272;91;21064;-70
2022/10/03 09:04:56;;;;;;;3.35;2.80;;;;;;;10.69;100.00;98137.36;1626247;87;21569;-71
2022/10/03 09:07:37;;;;;;;6.25;3.05;;;;;;;10.75;100.00;98142.11;1615368;88;21397;-73
2022/10/03 09:11:02;;;;;;;5.12;3.80;;;;;;;10.80;100.00;98138.81;1634042;86;21134;-71
2022/10/03 09:13:51;;;;;;;5.90;3.50;;;;;;;10.86;100.00;98137.66;1635991;87;21277;-71
2022/10/03 09:16:44;;;;;;;5.67;3.58;;;;;;;10.95;100.00;98145.88;1635383;87;20988;-71
2022/10/03 09:19:51;;;;;;;7.10;3.27;;;;;;;11.03;100.00;98141.76;1635897;87;21063;-71
2022/10/03 09:22:36;;;;;;;11.48;3.60;;;;;;;11.11;100.00;98137.06;1635491;87;21611;-73
2022/10/03 09:25:35;;;;;;;4.25;2.87;;;;;;;11.21;100.00;98137.72;1635557;87;21052;-74
2022/10/03 09:28:39;;;;;;;6.92;3.37;;;;;;;11.30;100.00;98158.84;1635969;86;21225;-73
2022/10/03 09:31:46;;;;;;;7.53;3.37;;;;;;;11.41;100.00;98146.03;1628461;88;21075;-74
2022/10/03 09:34:55;;;;;;;4.85;2.70;;;;;;;11.52;100.00;98142.07;1613938;88;21091;-73
2022/10/03 09:37:47;;;;;;;3.42;2.92;;;;;;;11.63;99.87;98146.75;1606859;87;21556;-73
2022/10/03 09:40:57;;;;;;;4.87;2.62;;;;;;;11.71;97.32;98166.27;1609699;88;21078;-73
2022/10/03 09:44:05;;;;;;;9.98;2.87;;;;;;;11.80;97.22;98150.52;1629150;88;21874;-72
2022/10/03 09:47:27;;;;;;;8.75;2.77;;;;;;;11.90;95.65;98146.05;1597731;88;21016;-70
2022/10/03 09:50:26;;;;;;;4.60;2.75;;;;;;;12.02;95.19;98162.55;1624822;88;21010;-72
2022/10/03 09:53:29;;;;;;;3.62;2.62;;;;;;;12.13;93.30;98149.94;1603639;88;21565;-72
2022/10/03 09:56:27;;;;;;;3.87;2.42;;;;;;;12.21;91.07;98149.27;1609949;87;21567;-74
2022/10/03 09:59:30;;;;;;;5.03;2.85;;;;;;;12.30;90.90;98156.66;1627918;88;21159;-72
2022/10/03 10:02:40;;;;;;;3.92;2.58;;;;;;;12.35;90.15;98154.66;1614649;87;21158;-72
2022/10/03 10:06:03;;;;;;;3.67;2.50;;;;;;;12.39;86.95;98155.66;1655965;84;21543;-69
2022/10/03 10:09:20;;;;;;;5.60;2.27;;;;;;;12.42;85.23;98154.28;1659744;85;21023;-71
2022/10/03 10:12:24;;;;;;;4.20;2.47;;;;;;;12.47;85.12;98174.41;1657326;85;21579;-72
2022/10/03 10:15:29;;;;;;;5.65;2.17;;;;;;;12.49;84.44;98191.07;1658381;85;20992;-71
2022/10/03 10:18:25;;;;;;;3.72;2.75;;;;;;;12.52;82.44;98172.94;1661744;84;21552;-70
2022/10/03 10:21:14;;;;;;;3.87;1.90;;;;;;;12.54;81.57;98185.58;1577581;89;21152;-74
2022/10/03 10:23:50;;;;;;;7.78;3.42;;;;;;;12.56;81.71;98159.93;1654778;85;21840;-72
2022/10/03 10:26:40;;;;;;;3.27;2.17;;;;;;;12.58;82.03;98175.79;1629470;87;21186;-73
2022/10/03 10:29:21;;;;;;;5.03;2.25;;;;;;;12.59;81.74;98184.94;1637479;87;21629;-73
2022/10/03 10:32:16;;;;;;;9.15;2.35;;;;;;;12.59;79.45;98188.98;1667194;86;21063;-76
2022/10/03 10:35:03;;;;;;;5.12;2.05;;;;;;;12.63;79.37;98183.23;1660641;86;21043;-75
2022/10/03 10:37:56;;;;;;;7.22;2.05;;;;;;;12.64;79.78;98161.91;1660266;86;21063;-72
2022/10/03 10:40:49;;;;;;;3.40;2.15;;;;;;;12.64;78.71;98175.95;1687040;84;21071;-72
2022/10/03 10:43:45;;;;;;;2.95;1.80;;;;;;;12.64;78.72;98163.81;1663031;86;21289;-73
2022/10/03 10:46:40;;;;;;;3.25;1.95;;;;;;;12.64;78.57;98184.04;1668262;85;20999;-74
2022/10/03 10:49:39;;;;;;;3.10;2.00;;;;;;;12.66;77.74;98174.53;1665379;85;21688;-77
2022/10/03 10:53:04;;;;;;;3.62;2.17;;;;;;;12.70;77.12;98182.05;1660281;86;21095;-72
2022/10/03 10:56:06;;;;;;;2.67;1.90;;;;;;;12.73;75.44;98174.69;1608946;88;21120;-74
2022/10/03 10:59:14;;;;;;;4.12;2.72;;;;;;;12.75;74.78;98182.75;1590479;89;21204;-73
2022/10/03 11:02:21;;;;;;;2.30;2.10;;;;;;;12.78;74.82;98205.06;1638174;86;21522;-73
2022/10/03 11:05:06;;;;;;;4.97;2.10;;;;;;;12.83;74.58;98202.81;1634887;87;21067;-72
2022/10/03 11:08:32;;;;;;;3.80;1.85;;;;;;;12.89;73.75;98198.92;1591292;86;21734;-72
2022/10/03 11:11:42;;;;;;;4.70;1.90;;;;;;;12.95;74.32;98183.66;1633378;86;21111;-71
2022/10/03 11:14:39;;;;;;;10.13;2.62;;;;;;;13.03;73.86;98182.16;1637991;87;21824;-73
2022/10/03 11:17:32;;;;;;;2.50;1.90;;;;;;;13.05;72.37;98189.39;1637097;87;21040;-72
2022/10/03 11:20:32;;;;;;;;;;;;;;;13.09;72.58;98197.16;1668703;85;21575;-77
2022/10/03 11:23:43;;;;;;;7.15;2.22;;;;;;;13.10;73.53;98186.58;1639271;87;20186;-75
2022/10/03 11:26:50;;;;;;;6.62;4.17;;;;;;;13.08;73.78;98196.35;1662106;84;21596;-75
2022/10/03 11:29:55;;;;;;;2.55;1.85;;;;;;;13.09;74.38;98194.45;1681868;84;21123;-74
2022/10/03 11:33:05;;;;;;;4.85;2.20;;;;;;;13.10;75.20;98185.23;1661956;84;20952;-69
2022/10/03 11:36:05;;;;;;;2.25;2.05;;;;;;;13.18;76.09;98194.02;1669617;84;21023;-74
2022/10/03 11:38:40;;;;;;;2.77;2.20;;;;;;;13.15;76.30;98195.15;1668068;86;21023;-74
2022/10/03 11:41:39;;;;;;;2.98;2.20;;;;;;;13.11;76.59;98192.27;1661888;86;21128;-75
2022/10/03 11:44:34;;;;;;;3.58;2.05;;;;;;;13.10;76.66;98195.48;1667729;85;21932;-75
2022/10/03 11:47:40;;;;;;;4.37;2.02;;;;;;;13.10;76.67;98187.38;1668540;85;21042;-73
2022/10/03 11:50:41;;;;;;;6.75;2.50;;;;;;;13.11;76.11;98181.47;1613223;87;21563;-75
2022/10/03 11:53:22;;;;;;;2.50;1.92;;;;;;;13.14;75.90;98189.53;1641078;87;21071;-75
2022/10/03 11:56:38;;;;;;;3.33;1.90;;;;;;;13.16;75.70;98210.25;1643380;86;21137;-75
2022/10/03 11:59:34;;;;;;;4.83;2.15;;;;;;;13.17;73.72;98192.41;1641099;86;21095;-76
2022/10/03 12:02:21;;;;;;;1.90;1.70;;;;;;;13.23;73.38;98189.06;1641970;86;21051;-81
2022/10/03 12:05:08;;;;;;;3.10;2.08;;;;;;;13.30;73.42;98209.13;1637291;87;21119;-81
2022/10/03 12:10:56;;;;;;;4.42;1.72;;;;;;;13.54;73.39;98189.95;1665455;82;21147;-79
2022/10/03 12:13:37;;;;;;;3.62;1.60;;;;;;;13.65;72.88;98187.27;1665387;86;21151;-84
2022/10/03 12:16:07;;;;;;;3.08;1.72;;;;;;;13.71;71.52;98206.86;1661959;86;21029;-75
2022/10/03 12:18:47;;;;;;;3.35;2.05;;;;;;;13.71;70.69;98250.09;1670904;85;21133;-76
2022/10/03 12:21:23;;;;;;;4.60;2.02;;;;;;;13.70;71.19;98185.80;1661278;85;21095;-74
2022/10/03 12:24:14;;;;;;;6.08;1.70;;;;;;;13.71;71.53;98200.11;1631743;87;21138;-71
2022/10/03 12:27:31;;;;;;;7.85;2.52;;;;;;;13.70;71.62;98202.02;1655494;84;21774;-71
2022/10/03 12:30:02;;;;;;;3.12;2.00;;;;;;;13.67;71.57;98187.74;1639622;87;21083;-72
2022/10/03 12:32:52;;;;;;;3.72;2.15;;;;;;;13.62;71.10;98215.45;1610381;89;21091;-70
2022/10/03 12:35:41;;;;;;;2.83;2.02;;;;;;;13.59;71.20;98194.44;1618345;87;21623;-79
2022/10/03 12:38:32;;;;;;;4.37;2.00;;;;;;;13.60;72.12;98195.49;1659844;85;21095;-77
2022/10/03 12:41:26;;;;;;;2.65;2.42;;;;;;;13.61;72.11;98206.55;1645672;87;21173;-76
2022/10/03 12:44:32;;;;;;;2.30;1.82;;;;;;;13.62;71.98;98205.42;1634424;86;27118;-79
2022/10/03 12:47:33;;;;;;;6.55;2.10;;;;;;;13.55;71.25;98188.86;1649589;86;21070;-84
2022/10/03 12:50:12;;;;;;;5.20;2.58;;;;;;;13.48;71.87;98197.37;1639295;86;21591;-80
2022/10/03 12:52:47;;;;;;;5.83;2.55;;;;;;;13.46;72.06;98205.55;1637749;86;21155;-89
2022/10/03 12:55:27;;;;;;;4.67;2.10;;;;;;;13.44;72.13;98190.19;1637357;87;21126;-83
2022/10/03 12:58:16;;;;;;;8.20;4.22;;;;;;;13.44;72.02;98184.78;1637407;87;20968;-82
2022/10/03 13:01:09;;;;;;;5.72;3.80;;;;;;;13.44;72.44;98206.39;1642176;86;21031;-80
2022/10/03 13:03:50;;;;;;;3.55;2.22;;;;;;;13.37;71.20;98210.87;1666535;86;21079;-83
2022/10/03 13:06:40;;;;;;;3.47;1.60;;;;;;;13.35;72.32;98208.21;1666592;86;21078;-79
2022/10/03 13:09:48;;;;;;;2.52;2.33;;;;;;;13.29;73.38;98214.82;1643221;84;21170;-76
2022/10/03 13:12:35;;;;;;;3.92;2.10;;;;;;;13.24;74.36;98202.78;1607338;87;21714;-75
2022/10/03 13:15:46;;;;;;;2.70;1.90;;;;;;;13.15;75.55;98204.59;1638790;87;21090;-73
2022/10/03 13:18:30;;;;;;;4.95;2.15;;;;;;;13.07;76.80;98202.05;1662461;86;21021;-75
2022/10/03 16:40:40;;;;;;;2.52;2.15;;;;;;;12.81;74.72;98191.51;1704202;80;24769;-76
2022/10/03 16:43:08;;;;;;;4.90;2.58;;;;;;;12.85;74.53;98199.28;1690333;83;20936;-77
2022/10/03 16:45:43;;;;;;;3.15;2.45;;;;;;;12.88;74.65;98194.08;1701158;83;20943;-73
2022/10/03 16:51:09;;;;;;;3.50;3.20;;;;;;;12.87;76.28;98193.02;1704941;83;21270;-74
2022/10/03 16:53:35;;;;;;;4.47;2.52;;;;;;;12.80;77.42;98189.39;1690609;82;21015;-71
2022/10/03 16:56:06;;;;;;;4.17;2.92;;;;;;;12.70;78.66;98189.59;1650824;83;21564;-75
2022/10/03 16:58:38;;;;;;;8.33;2.60;;;;;;;12.60;79.42;98191.13;1693291;83;21140;-74
2022/10/03 17:01:13;;;;;;;6.85;4.08;;;;;;;12.53;80.53;98197.46;1710026;83;20997;-76
2022/10/03 17:03:47;;;;;;;7.10;3.87;;;;;;;12.48;81.36;98201.59;1693678;83;20988;-74
2022/10/03 17:06:21;;;;;;;7.12;2.45;;;;;;;12.43;82.37;98196.30;1707498;83;21540;-73
2022/10/03 17:08:52;;;;;;;3.83;3.35;;;;;;;12.35;83.38;98230.16;1686497;83;21060;-75
2022/10/03 17:11:21;;;;;;;6.53;3.22;;;;;;;12.25;84.48;98192.59;1694935;83;22327;-72